Details From SPCL - CAP FAP DAVID ABENZUR RENGIFO INTL
To SBPV - Governador Jorge Teixeira De Oliveira
Flight Number -
Tags decoded
Created
Modified
Stats Distance 645 nm / 1,195 km
Max Altitude 0 ft / 0 m
Waypoints 4
Social Downloads 1
Likes 0
Share VATSIM

Download

Looking for another format? Having issues loading an existing format? Contact us
Advertisement - Login to hide

Notes

Requested: SPCL SIGOB UM527 TEMOR UW10 AERON W10 RCO UW10 BOGUR SBPV Unmatched points: SIGOB UM527 TEMOR UW10 W10 RCO UW10

Route

SPCL AERON BOGUR SBPV

ID Type Via Altitude Latitude Longitude Leg Dist Tot Dist Heading (true) Name
O SPCL APT - 0 ft / 0 m -8.37794˚ -74.57430˚ - 0 nm - CAP FAP DAVID ABENZUR RENGIFO INTL
AERON FIX - 0 ft / 0 m -9.57800˚ -68.53933˚ 365 nm 365 nm 102° / 101° -
BOGUR FIX - 0 ft / 0 m -8.74863˚ -64.02092˚ 272 nm 637 nm 80° / 79° -
O SBPV APT - 0 ft / 0 m -8.70929˚ -63.90228˚ 7 nm 645 nm 71° / 71° Governador Jorge Teixeira De Oliveira

Altitude Profile

Advertisement - Login to hide

Weather


0- 5 10 15 20 25 30 35+ Temperature / ° C

Clouds and Precipitation
Forecast for 2018-05-26 18:00 UTC. Updated 26 minutes ago

Ground ~20,000 ft ~40,000 ft Winds

SPCL

Details ICAO SPCL (PCL)
Name CAP FAP DAVID ABENZUR RENGIFO INTL
Region Peru
Timezone America/Lima (UTC-5.0)
Stats Elevation 513 ft / 156 m (AMSL)
Location -8.377940° -74.574298°
Runways 1
Magnetic Variation 4.772° W

METAR

SPCL 261700Z 10006KT 9999 BKN025 29/22 Q1016 RMK PP000

Decode

TAF

TAF SPCL 261100Z 2612/2712 00000KT 9999 SCT020 TX33/2620Z TN22/2711Z BECMG 2614/2617 15007KT 9999 FEW010 SCT060 TEMPO 2623/2703 33008KT 8000 FEW030 BKN080

Decode

Departure Runways

ID Width Length Bearing (true) Bearing (mag) Surface Threshold Offset Overrun Length
02 148 ft / 45 m 9,234 ft / 2,814 m 19.91° 24.68° Asphalt 0 ft / 0 m 0 ft / 0 m
20 148 ft / 45 m 9,234 ft / 2,814 m 199.91° 204.68° Asphalt 0 ft / 0 m 0 ft / 0 m

SBPV

Details ICAO SBPV (PVH)
Name Governador Jorge Teixeira De Oliveira
Region Brazil
Timezone America/Porto_Velho (UTC-4.0)
Stats Elevation 290 ft / 88 m (AMSL)
Location -8.709293° -63.902279°
Runways 1
Magnetic Variation 12.964° W

METAR

SBPV 261700Z 14007KT 9999 BKN040 32/21 Q1012

Decode

TAF

Not found

Destination Runways

ID Width Length Bearing (true) Bearing (mag) Surface Threshold Offset Overrun Length
01 148 ft / 45 m 7,919 ft / 2,414 m 356.64° 9.60° Asphalt 0 ft / 0 m 200 ft / 61 m
19 148 ft / 45 m 7,919 ft / 2,414 m 176.64° 189.60° Asphalt 0 ft / 0 m 200 ft / 61 m

Approach Navaids

Runway Type Ident Frequency Range Bearing (true) Bearing (mag) Slope Elevation
19 Localiser IPV 109.30 MHz 18 nm / 33 km 179.71° 192.67° - 290 ft / 88 m (AMSL)
19 Glidescope IPV 109.30 MHz 10 nm / 19 km 176.64° 189.61° 3.00° 290 ft / 88 m (AMSL)

Popular Alternatives